Aurora, Utah
Current Conditions -  °F | °C
As of 8:35 PM on Saturday 24 Jan 2015 (Local Time) from KDTA Reporting Station
Overcast Overcast  
Wind Chill: 33°   Ceiling: 4400
Heat Index: 33°   Visibility: 10mi
Dew Point: 26°   Wind: 0mph
Humidity: 77%   Direction: NA
Pressure: 30.45"   Gusts: NA
Location:  38.92°N, 111.93°W
Report Text: KDTA 250335Z AUTO 00000KT 10SM OVC044 01/M03 A3045 RMK AO1 T00051031
Loading
Personal Weather Stations






























Interactive Weather Map New forecast layout! Learn more

10-Day Weather Forecast

Advertisements
Track Severe Weather on mobile